PWSweather.com
Personal Weather Stations
Station Observations
KMAMEDFI2
Medfield, MA 02052

Medfield, MA 02052

Lat: 42.1900822, Lon: -71.3296889

Elevation: 138

Station Type: Rainwise WS MK-III

http://www.medfieldweather.com

High Low Average
Temperature 50.7°F10.4°C 44.7°F7.1°C 47.7°F8.7°C
Dew Point 49.8°F9.9°C 43.7°F6.5°C 46.9°F8.3°C
Winds 6.9 mph 11.1 kmh Calm Calm 2.0 mph ESE3.2 kmh ESE
Wind Gusts 11.5 mph18.5 kmh -- 3.0 mph4.8 kmh
Humidity 97% 96% 97%
Pressure 29.97 in1014.9 mb 29.37 in994.6 mb -
Precipitation 0.64 in16.3 mm - -
Hour Temp Dew Point Humidity Winds Wind Gusts Pressure Precip Precip Rate Daily Precip Total
12:00 AM 47.7°F8.7°C 46.6°F8.1°C 96% 1.2 mph S1.9 kmh S -- 29.99 in1015.6 mb - 0.00 in0.0 mm 0.00 in0.0 mm
12:10 AM 47.7°F8.7°C 46.9°F8.3°C 97% 1.2 mph ESE1.9 kmh ESE 1.2 mph1.9 kmh 29.98 in1015.2 mb - 0.00 in0.0 mm 0.00 in0.0 mm
12:20 AM 47.8°F8.8°C 47.0°F8.3°C 97% 2.3 mph SE3.7 kmh SE 2.3 mph3.7 kmh 29.98 in1015.2 mb - 0.00 in0.0 mm 0.00 in0.0 mm
12:30 AM 48.0°F8.9°C 47.2°F8.4°C 97% 1.2 mph S1.9 kmh S 2.3 mph3.7 kmh 29.97 in1014.9 mb - 0.00 in0.0 mm 0.00 in0.0 mm
12:40 AM 48.1°F8.9°C 47.3°F8.5°C 97% Calm Calm 2.3 mph3.7 kmh 29.97 in1014.9 mb - 0.00 in0.0 mm 0.00 in0.0 mm
12:50 AM 48.1°F8.9°C 47.3°F8.5°C 97% Calm Calm -- 29.97 in1014.9 mb - 0.00 in0.0 mm 0.00 in0.0 mm
01:00 AM 48.3°F9.1°C 47.4°F8.6°C 97% Calm Calm 2.3 mph3.7 kmh 29.97 in1014.9 mb - 0.00 in0.0 mm 0.00 in0.0 mm
01:10 AM 48.4°F9.1°C 47.3°F8.5°C 96% Calm Calm 1.2 mph1.9 kmh 29.97 in1014.9 mb - 0.00 in0.0 mm 0.00 in0.0 mm
01:20 AM 48.5°F9.2°C 47.4°F8.6°C 96% 1.2 mph S1.9 kmh S 1.2 mph1.9 kmh 29.97 in1014.9 mb - 0.00 in0.0 mm 0.00 in0.0 mm
01:30 AM 48.6°F9.2°C 47.5°F8.6°C 96% 2.3 mph SE3.7 kmh SE 2.3 mph3.7 kmh 29.97 in1014.9 mb - 0.00 in0.0 mm 0.00 in0.0 mm
01:40 AM 48.6°F9.2°C 47.5°F8.6°C 96% Calm Calm 1.2 mph1.9 kmh 29.96 in1014.6 mb - 0.00 in0.0 mm 0.00 in0.0 mm
01:50 AM 48.3°F9.1°C 47.2°F8.4°C 96% 2.3 mph S3.7 kmh S 2.3 mph3.7 kmh 29.95 in1014.2 mb - 0.00 in0.0 mm 0.00 in0.0 mm
02:00 AM 47.8°F8.8°C 47.0°F8.3°C 97% 1.2 mph S1.9 kmh S 1.2 mph1.9 kmh 29.95 in1014.2 mb - 0.00 in0.0 mm 0.00 in0.0 mm
02:10 AM 47.4°F8.6°C 46.6°F8.1°C 97% 1.2 mph E1.9 kmh E 1.2 mph1.9 kmh 29.95 in1014.2 mb - 0.00 in0.0 mm 0.00 in0.0 mm
02:20 AM 46.8°F8.2°C 46.0°F7.8°C 97% 3.5 mph E5.6 kmh E 2.3 mph3.7 kmh 29.94 in1013.9 mb - 0.00 in0.0 mm 0.00 in0.0 mm
02:30 AM 46.6°F8.1°C 45.8°F7.7°C 97% 2.3 mph E3.7 kmh E 2.3 mph3.7 kmh 29.94 in1013.9 mb - 0.00 in0.0 mm 0.00 in0.0 mm
02:40 AM 46.8°F8.2°C 46.0°F7.8°C 97% Calm Calm -- 29.94 in1013.9 mb - 0.00 in0.0 mm 0.00 in0.0 mm
02:50 AM 47.0°F8.3°C 46.2°F7.9°C 97% Calm Calm -- 29.94 in1013.9 mb - 0.00 in0.0 mm 0.00 in0.0 mm
03:00 AM 47.3°F8.5°C 46.5°F8.1°C 97% 2.3 mph E3.7 kmh E 2.3 mph3.7 kmh 29.94 in1013.9 mb - 0.00 in0.0 mm 0.00 in0.0 mm
03:10 AM 47.6°F8.7°C 46.8°F8.2°C 97% 1.2 mph E1.9 kmh E 1.2 mph1.9 kmh 29.94 in1013.9 mb - 0.00 in0.0 mm 0.00 in0.0 mm
03:20 AM 47.8°F8.8°C 47.0°F8.3°C 97% 3.5 mph E5.6 kmh E 2.3 mph3.7 kmh 29.94 in1013.9 mb - 0.00 in0.0 mm 0.00 in0.0 mm
03:30 AM 47.9°F8.8°C 47.1°F8.4°C 97% Calm Calm -- 29.94 in1013.9 mb - 0.00 in0.0 mm 0.00 in0.0 mm
03:40 AM 47.9°F8.8°C 47.1°F8.4°C 97% Calm Calm -- 29.93 in1013.5 mb - 0.00 in0.0 mm 0.00 in0.0 mm
03:50 AM 47.9°F8.8°C 47.1°F8.4°C 97% Calm Calm -- 29.93 in1013.5 mb - 0.00 in0.0 mm 0.00 in0.0 mm
04:00 AM 48.0°F8.9°C 47.2°F8.4°C 97% 1.2 mph E1.9 kmh E 2.3 mph3.7 kmh 29.93 in1013.5 mb - 0.00 in0.0 mm 0.00 in0.0 mm
04:10 AM 48.1°F8.9°C 47.3°F8.5°C 97% Calm Calm -- 29.93 in1013.5 mb - 0.00 in0.0 mm 0.00 in0.0 mm
04:20 AM 48.0°F8.9°C 47.2°F8.4°C 97% 2.3 mph S3.7 kmh S 2.3 mph3.7 kmh 29.94 in1013.9 mb - 0.00 in0.0 mm 0.00 in0.0 mm
04:30 AM 48.2°F9.0°C 47.4°F8.6°C 97% Calm Calm 1.2 mph1.9 kmh 29.93 in1013.5 mb - 0.00 in0.0 mm 0.00 in0.0 mm
04:40 AM 48.3°F9.1°C 47.5°F8.6°C 97% Calm Calm -- 29.93 in1013.5 mb - 0.00 in0.0 mm 0.00 in0.0 mm
04:50 AM 48.3°F9.1°C 47.5°F8.6°C 97% 2.3 mph ESE3.7 kmh ESE 2.3 mph3.7 kmh 29.92 in1013.2 mb - 0.00 in0.0 mm 0.00 in0.0 mm
05:00 AM 48.4°F9.1°C 47.6°F8.7°C 97% 2.3 mph ESE3.7 kmh ESE 2.3 mph3.7 kmh 29.92 in1013.2 mb - 0.00 in0.0 mm 0.00 in0.0 mm
05:10 AM 48.4°F9.1°C 47.6°F8.7°C 97% 3.5 mph E5.6 kmh E 2.3 mph3.7 kmh 29.92 in1013.2 mb - 0.00 in0.0 mm 0.00 in0.0 mm
05:20 AM 48.4°F9.1°C 47.6°F8.7°C 97% 2.3 mph E3.7 kmh E 2.3 mph3.7 kmh 29.92 in1013.2 mb - 0.00 in0.0 mm 0.00 in0.0 mm
05:30 AM 48.5°F9.2°C 47.7°F8.7°C 97% 2.3 mph E3.7 kmh E 2.3 mph3.7 kmh 29.92 in1013.2 mb - 0.00 in0.0 mm 0.00 in0.0 mm
05:40 AM 48.6°F9.2°C 47.8°F8.8°C 97% 1.2 mph ESE1.9 kmh ESE 2.3 mph3.7 kmh 29.92 in1013.2 mb - 0.00 in0.0 mm 0.00 in0.0 mm
05:50 AM 48.5°F9.2°C 47.7°F8.7°C 97% 2.3 mph E3.7 kmh E 2.3 mph3.7 kmh 29.92 in1013.2 mb - 0.00 in0.0 mm 0.00 in0.0 mm
06:00 AM 48.3°F9.1°C 47.4°F8.6°C 97% 2.3 mph E3.7 kmh E 2.3 mph3.7 kmh 29.92 in1013.2 mb - 0.00 in0.0 mm 0.00 in0.0 mm
06:10 AM 47.9°F8.8°C 47.1°F8.4°C 97% 3.5 mph E5.6 kmh E 2.3 mph3.7 kmh 29.92 in1013.2 mb - 0.00 in0.0 mm 0.00 in0.0 mm
06:20 AM 47.8°F8.8°C 47.0°F8.3°C 97% 2.3 mph E3.7 kmh E 2.3 mph3.7 kmh 29.92 in1013.2 mb - 0.01 in0.3 mm 0.01 in0.3 mm
06:30 AM 47.8°F8.8°C 46.9°F8.3°C 97% 2.3 mph E3.7 kmh E 2.3 mph3.7 kmh 29.92 in1013.2 mb - 0.01 in0.3 mm 0.01 in0.3 mm
06:40 AM 47.8°F8.8°C 47.0°F8.3°C 97% 3.5 mph E5.6 kmh E 2.3 mph3.7 kmh 29.92 in1013.2 mb - 0.01 in0.3 mm 0.01 in0.3 mm
06:50 AM 47.9°F8.8°C 47.0°F8.3°C 97% Calm Calm -- 29.93 in1013.5 mb - 0.01 in0.3 mm 0.01 in0.3 mm
07:00 AM 48.0°F8.9°C 47.2°F8.4°C 97% Calm Calm -- 29.93 in1013.5 mb - 0.01 in0.3 mm 0.01 in0.3 mm
07:10 AM 48.2°F9.0°C 47.4°F8.6°C 97% 1.2 mph E1.9 kmh E 1.2 mph1.9 kmh 29.93 in1013.5 mb - 0.01 in0.3 mm 0.01 in0.3 mm
07:20 AM 48.3°F9.1°C 47.5°F8.6°C 97% Calm Calm -- 29.93 in1013.5 mb - 0.02 in0.5 mm 0.02 in0.5 mm
07:30 AM 48.3°F9.1°C 47.5°F8.6°C 97% 2.3 mph E3.7 kmh E 2.3 mph3.7 kmh 29.93 in1013.5 mb - 0.01 in0.3 mm 0.02 in0.5 mm
07:40 AM 48.1°F8.9°C 47.3°F8.5°C 97% 1.2 mph E1.9 kmh E 2.3 mph3.7 kmh 29.93 in1013.5 mb - 0.01 in0.3 mm 0.02 in0.5 mm
07:50 AM 48.1°F8.9°C 47.3°F8.5°C 97% Calm Calm 1.2 mph1.9 kmh 29.93 in1013.5 mb - 0.02 in0.5 mm 0.03 in0.8 mm
08:00 AM 48.1°F8.9°C 47.3°F8.5°C 97% Calm Calm -- 29.93 in1013.5 mb - 0.02 in0.5 mm 0.03 in0.8 mm
08:10 AM 48.1°F8.9°C 47.3°F8.5°C 97% 1.2 mph ESE1.9 kmh ESE 1.2 mph1.9 kmh 29.93 in1013.5 mb - 0.02 in0.5 mm 0.03 in0.8 mm
08:20 AM 48.1°F8.9°C 47.3°F8.5°C 97% Calm Calm -- 29.94 in1013.9 mb - 0.02 in0.5 mm 0.03 in0.8 mm
08:30 AM 48.2°F9.0°C 47.4°F8.6°C 97% 2.3 mph ESE3.7 kmh ESE 2.3 mph3.7 kmh 29.94 in1013.9 mb - 0.01 in0.3 mm 0.03 in0.8 mm
08:40 AM 48.4°F9.1°C 47.6°F8.7°C 97% 2.3 mph ESE3.7 kmh ESE 2.3 mph3.7 kmh 29.94 in1013.9 mb - 0.02 in0.5 mm 0.04 in1.0 mm
08:50 AM 48.6°F9.2°C 47.8°F8.8°C 97% 1.2 mph ESE1.9 kmh ESE 2.3 mph3.7 kmh 29.94 in1013.9 mb - 0.01 in0.3 mm 0.04 in1.0 mm
09:00 AM 48.8°F9.3°C 48.0°F8.9°C 97% 3.5 mph E5.6 kmh E 2.3 mph3.7 kmh 29.92 in1013.2 mb - 0.02 in0.5 mm 0.05 in1.3 mm
09:10 AM 48.8°F9.3°C 48.0°F8.9°C 97% 2.3 mph ESE3.7 kmh ESE 2.3 mph3.7 kmh 29.91 in1012.9 mb - 0.03 in0.8 mm 0.06 in1.5 mm
09:20 AM 48.9°F9.4°C 48.1°F8.9°C 97% 2.3 mph ESE3.7 kmh ESE 2.3 mph3.7 kmh 29.91 in1012.9 mb - 0.03 in0.8 mm 0.06 in1.5 mm
09:30 AM 49.0°F9.4°C 48.2°F9.0°C 97% 4.6 mph ESE7.4 kmh ESE 5.8 mph9.3 kmh 29.89 in1012.2 mb - 0.03 in0.8 mm 0.06 in1.5 mm
09:40 AM 49.1°F9.5°C 48.3°F9.1°C 97% 3.5 mph E5.6 kmh E 3.5 mph5.6 kmh 29.90 in1012.5 mb - 0.03 in0.8 mm 0.07 in1.8 mm
09:50 AM 49.2°F9.6°C 48.4°F9.1°C 97% 2.3 mph ESE3.7 kmh ESE 2.3 mph3.7 kmh 29.90 in1012.5 mb - 0.03 in0.8 mm 0.07 in1.8 mm
10:00 AM 49.4°F9.7°C 48.6°F9.2°C 97% 2.3 mph ESE3.7 kmh ESE 3.5 mph5.6 kmh 29.89 in1012.2 mb - 0.02 in0.5 mm 0.07 in1.8 mm
10:10 AM 49.3°F9.6°C 48.5°F9.2°C 97% 3.5 mph SE5.6 kmh SE 5.8 mph9.3 kmh 29.88 in1011.9 mb - 0.01 in0.3 mm 0.07 in1.8 mm
10:20 AM 49.3°F9.6°C 48.5°F9.2°C 97% 3.5 mph SE5.6 kmh SE 2.3 mph3.7 kmh 29.88 in1011.9 mb - 0.01 in0.3 mm 0.07 in1.8 mm
10:30 AM 49.6°F9.8°C 48.8°F9.3°C 97% 2.3 mph E3.7 kmh E 2.3 mph3.7 kmh 29.89 in1012.2 mb - 0.01 in0.3 mm 0.07 in1.8 mm
10:40 AM 49.7°F9.8°C 48.9°F9.4°C 97% 2.3 mph E3.7 kmh E 2.3 mph3.7 kmh 29.88 in1011.9 mb - 0.00 in0.0 mm 0.07 in1.8 mm
10:50 AM 49.7°F9.8°C 48.9°F9.4°C 97% 3.5 mph E5.6 kmh E 2.3 mph3.7 kmh 29.88 in1011.9 mb - 0.00 in0.0 mm 0.07 in1.8 mm
11:00 AM 49.9°F9.9°C 49.1°F9.5°C 97% 3.5 mph E5.6 kmh E 2.3 mph3.7 kmh 29.87 in1011.5 mb - 0.00 in0.0 mm 0.07 in1.8 mm
11:10 AM 50.1°F10.1°C 49.3°F9.6°C 97% 2.3 mph E3.7 kmh E 3.5 mph5.6 kmh 29.87 in1011.5 mb - 0.00 in0.0 mm 0.07 in1.8 mm
11:20 AM 49.9°F9.9°C 49.1°F9.5°C 97% 3.5 mph ESE5.6 kmh ESE 2.3 mph3.7 kmh 29.86 in1011.2 mb - 0.00 in0.0 mm 0.07 in1.8 mm
11:30 AM 50.0°F10.0°C 49.2°F9.6°C 97% 5.8 mph E9.3 kmh E 6.9 mph11.1 kmh 29.84 in1010.5 mb - 0.00 in0.0 mm 0.07 in1.8 mm
11:40 AM 49.9°F9.9°C 49.1°F9.5°C 97% 5.8 mph E9.3 kmh E 6.9 mph11.1 kmh 29.83 in1010.2 mb - 0.00 in0.0 mm 0.07 in1.8 mm
11:50 AM 49.9°F9.9°C 49.1°F9.5°C 97% 3.5 mph E5.6 kmh E 2.3 mph3.7 kmh 29.85 in1010.8 mb - 0.00 in0.0 mm 0.07 in1.8 mm
12:00 PM 50.1°F10.1°C 49.3°F9.6°C 97% 4.6 mph E7.4 kmh E 3.5 mph5.6 kmh 29.84 in1010.5 mb - 0.00 in0.0 mm 0.07 in1.8 mm
12:10 PM 50.1°F10.1°C 49.3°F9.6°C 97% 5.8 mph E9.3 kmh E 8.1 mph13.0 kmh 29.84 in1010.5 mb - 0.00 in0.0 mm 0.07 in1.8 mm
12:20 PM 50.0°F10.0°C 49.2°F9.6°C 97% 1.2 mph E1.9 kmh E 2.3 mph3.7 kmh 29.81 in1009.5 mb - 0.00 in0.0 mm 0.07 in1.8 mm
12:30 PM 50.2°F10.1°C 49.4°F9.7°C 97% 4.6 mph E7.4 kmh E 5.8 mph9.3 kmh 29.80 in1009.1 mb - 0.00 in0.0 mm 0.07 in1.8 mm
12:40 PM 49.9°F9.9°C 49.1°F9.5°C 97% 4.6 mph E7.4 kmh E 8.1 mph13.0 kmh 29.80 in1009.1 mb - 0.00 in0.0 mm 0.07 in1.8 mm
12:50 PM 49.9°F9.9°C 49.0°F9.4°C 97% 5.8 mph E9.3 kmh E 11.5 mph18.5 kmh 29.80 in1009.1 mb - 0.00 in0.0 mm 0.07 in1.8 mm
01:00 PM 49.9°F9.9°C 49.1°F9.5°C 97% 3.5 mph E5.6 kmh E 5.8 mph9.3 kmh 29.82 in1009.8 mb - 0.00 in0.0 mm 0.07 in1.8 mm
01:10 PM 50.2°F10.1°C 49.4°F9.7°C 97% 3.5 mph ESE5.6 kmh ESE 3.5 mph5.6 kmh 29.80 in1009.1 mb - 0.00 in0.0 mm 0.07 in1.8 mm
01:20 PM 50.5°F10.3°C 49.7°F9.8°C 97% 3.5 mph E5.6 kmh E 2.3 mph3.7 kmh 29.79 in1008.8 mb - 0.00 in0.0 mm 0.07 in1.8 mm
01:30 PM 50.6°F10.3°C 49.7°F9.8°C 97% 3.5 mph E5.6 kmh E 2.3 mph3.7 kmh 29.78 in1008.5 mb - 0.00 in0.0 mm 0.07 in1.8 mm
01:40 PM 50.7°F10.4°C 49.8°F9.9°C 97% 4.6 mph E7.4 kmh E 5.8 mph9.3 kmh 29.76 in1007.8 mb - 0.00 in0.0 mm 0.07 in1.8 mm
01:50 PM 50.5°F10.3°C 49.6°F9.8°C 97% 4.6 mph ESE7.4 kmh ESE 8.1 mph13.0 kmh 29.76 in1007.8 mb - 0.00 in0.0 mm 0.07 in1.8 mm
02:00 PM 50.4°F10.2°C 49.5°F9.7°C 97% 2.3 mph ESE3.7 kmh ESE 2.3 mph3.7 kmh 29.77 in1008.1 mb - 0.00 in0.0 mm 0.07 in1.8 mm
02:10 PM 50.3°F10.2°C 49.5°F9.7°C 97% 2.3 mph ESE3.7 kmh ESE 2.3 mph3.7 kmh 29.78 in1008.5 mb - 0.00 in0.0 mm 0.07 in1.8 mm
02:20 PM 50.0°F10.0°C 49.2°F9.6°C 97% 6.9 mph E11.1 kmh E 8.1 mph13.0 kmh 29.78 in1008.5 mb - 0.00 in0.0 mm 0.07 in1.8 mm
02:30 PM 49.7°F9.8°C 48.8°F9.3°C 97% 3.5 mph ESE5.6 kmh ESE 3.5 mph5.6 kmh 29.75 in1007.5 mb - 0.00 in0.0 mm 0.07 in1.8 mm
02:40 PM 49.6°F9.8°C 48.8°F9.3°C 97% 6.9 mph E11.1 kmh E 8.1 mph13.0 kmh 29.72 in1006.4 mb - 0.00 in0.0 mm 0.07 in1.8 mm
02:50 PM 49.6°F9.8°C 48.7°F9.3°C 97% 3.5 mph E5.6 kmh E 5.8 mph9.3 kmh 29.72 in1006.4 mb - 0.00 in0.0 mm 0.07 in1.8 mm
03:00 PM 49.6°F9.8°C 48.8°F9.3°C 97% 1.2 mph SE1.9 kmh SE 1.2 mph1.9 kmh 29.71 in1006.1 mb - 0.00 in0.0 mm 0.07 in1.8 mm
03:10 PM 49.4°F9.7°C 48.6°F9.2°C 97% 3.5 mph SE5.6 kmh SE 2.3 mph3.7 kmh 29.72 in1006.4 mb - 0.00 in0.0 mm 0.07 in1.8 mm
03:20 PM 49.3°F9.6°C 48.5°F9.2°C 97% 2.3 mph NW3.7 kmh NW 2.3 mph3.7 kmh 29.70 in1005.8 mb - 0.00 in0.0 mm 0.07 in1.8 mm
03:30 PM 49.0°F9.4°C 48.2°F9.0°C 97% 2.3 mph E3.7 kmh E 2.3 mph3.7 kmh 29.70 in1005.8 mb - 0.00 in0.0 mm 0.07 in1.8 mm
03:40 PM 48.8°F9.3°C 48.0°F8.9°C 97% 2.3 mph E3.7 kmh E 2.3 mph3.7 kmh 29.70 in1005.8 mb - 0.00 in0.0 mm 0.07 in1.8 mm
03:50 PM 48.7°F9.3°C 47.9°F8.8°C 97% 2.3 mph SE3.7 kmh SE 2.3 mph3.7 kmh 29.69 in1005.4 mb - 0.00 in0.0 mm 0.07 in1.8 mm
04:00 PM 48.6°F9.2°C 47.8°F8.8°C 97% 2.3 mph SE3.7 kmh SE 2.3 mph3.7 kmh 29.70 in1005.8 mb - 0.00 in0.0 mm 0.07 in1.8 mm
04:10 PM 48.5°F9.2°C 47.7°F8.7°C 97% 3.5 mph ESE5.6 kmh ESE 5.8 mph9.3 kmh 29.71 in1006.1 mb - 0.00 in0.0 mm 0.07 in1.8 mm
04:20 PM 48.4°F9.1°C 47.6°F8.7°C 97% 2.3 mph ESE3.7 kmh ESE 2.3 mph3.7 kmh 29.70 in1005.8 mb - 0.00 in0.0 mm 0.07 in1.8 mm
04:30 PM 48.4°F9.1°C 47.6°F8.7°C 97% 3.5 mph NNW5.6 kmh NNW 2.3 mph3.7 kmh 29.71 in1006.1 mb - 0.00 in0.0 mm 0.07 in1.8 mm
04:40 PM 48.1°F8.9°C 47.3°F8.5°C 97% 1.2 mph W1.9 kmh W 1.2 mph1.9 kmh 29.72 in1006.4 mb - 0.00 in0.0 mm 0.07 in1.8 mm
04:50 PM 48.0°F8.9°C 47.2°F8.4°C 97% 2.3 mph ENE3.7 kmh ENE 2.3 mph3.7 kmh 29.71 in1006.1 mb - 0.01 in0.3 mm 0.08 in2.0 mm
05:00 PM 48.0°F8.9°C 47.2°F8.4°C 97% 3.5 mph E5.6 kmh E 2.3 mph3.7 kmh 29.70 in1005.8 mb - 0.02 in0.5 mm 0.09 in2.3 mm
05:10 PM 47.9°F8.8°C 47.1°F8.4°C 97% 2.3 mph E3.7 kmh E 2.3 mph3.7 kmh 29.70 in1005.8 mb - 0.02 in0.5 mm 0.09 in2.3 mm
05:20 PM 47.9°F8.8°C 47.1°F8.4°C 97% 2.3 mph E3.7 kmh E 3.5 mph5.6 kmh 29.69 in1005.4 mb - 0.02 in0.5 mm 0.09 in2.3 mm
05:30 PM 47.6°F8.7°C 46.8°F8.2°C 97% 2.3 mph NE3.7 kmh NE 2.3 mph3.7 kmh 29.69 in1005.4 mb - 0.02 in0.5 mm 0.09 in2.3 mm
05:40 PM 47.4°F8.6°C 46.6°F8.1°C 97% 1.2 mph E1.9 kmh E 2.3 mph3.7 kmh 29.68 in1005.1 mb - 0.02 in0.5 mm 0.09 in2.3 mm
05:50 PM 47.3°F8.5°C 46.5°F8.1°C 97% 2.3 mph NNW3.7 kmh NNW 3.5 mph5.6 kmh 29.68 in1005.1 mb - 0.02 in0.5 mm 0.10 in2.5 mm
06:00 PM 47.3°F8.5°C 46.5°F8.1°C 97% 3.5 mph ESE5.6 kmh ESE 5.8 mph9.3 kmh 29.68 in1005.1 mb - 0.01 in0.3 mm 0.10 in2.5 mm
06:10 PM 47.0°F8.3°C 46.2°F7.9°C 97% 3.5 mph NE5.6 kmh NE 3.5 mph5.6 kmh 29.66 in1004.4 mb - 0.01 in0.3 mm 0.10 in2.5 mm
06:20 PM 46.4°F8.0°C 45.6°F7.6°C 97% 3.5 mph E5.6 kmh E 3.5 mph5.6 kmh 29.65 in1004.1 mb - 0.01 in0.3 mm 0.10 in2.5 mm
06:30 PM 45.9°F7.7°C 45.1°F7.3°C 97% 1.2 mph NW1.9 kmh NW 2.3 mph3.7 kmh 29.64 in1003.7 mb - 0.01 in0.3 mm 0.10 in2.5 mm
06:40 PM 45.5°F7.5°C 44.7°F7.1°C 97% 3.5 mph ESE5.6 kmh ESE 5.8 mph9.3 kmh 29.63 in1003.4 mb - 0.01 in0.3 mm 0.10 in2.5 mm
06:50 PM 45.2°F7.3°C 44.4°F6.9°C 97% 3.5 mph E5.6 kmh E 3.5 mph5.6 kmh 29.62 in1003.0 mb - 0.00 in0.0 mm 0.10 in2.5 mm
07:00 PM 45.1°F7.3°C 44.3°F6.8°C 97% 4.6 mph ENE7.4 kmh ENE 9.2 mph14.8 kmh 29.61 in1002.7 mb - 0.00 in0.0 mm 0.10 in2.5 mm
07:10 PM 45.1°F7.3°C 44.3°F6.8°C 97% 3.5 mph N5.6 kmh N 8.1 mph13.0 kmh 29.60 in1002.4 mb - 0.00 in0.0 mm 0.10 in2.5 mm
07:20 PM 45.1°F7.3°C 44.3°F6.8°C 97% 3.5 mph E5.6 kmh E 2.3 mph3.7 kmh 29.61 in1002.7 mb - 0.02 in0.5 mm 0.12 in3.0 mm
07:30 PM 45.1°F7.3°C 44.3°F6.8°C 97% 4.6 mph SE7.4 kmh SE 8.1 mph13.0 kmh 29.61 in1002.7 mb - 0.06 in1.5 mm 0.16 in4.1 mm
07:40 PM 45.1°F7.3°C 44.3°F6.8°C 97% 3.5 mph ENE5.6 kmh ENE 2.3 mph3.7 kmh 29.61 in1002.7 mb - 0.10 in2.5 mm 0.20 in5.1 mm
07:50 PM 45.0°F7.2°C 44.0°F6.7°C 96% 2.3 mph SSE3.7 kmh SSE 3.5 mph5.6 kmh 29.62 in1003.0 mb - 0.18 in4.6 mm 0.28 in7.1 mm
08:00 PM 45.0°F7.2°C 43.9°F6.6°C 96% 2.3 mph NE3.7 kmh NE 3.5 mph5.6 kmh 29.62 in1003.0 mb - 0.24 in6.1 mm 0.34 in8.6 mm
08:10 PM 44.8°F7.1°C 43.8°F6.6°C 96% 1.2 mph NNE1.9 kmh NNE 11.5 mph18.5 kmh 29.61 in1002.7 mb - 0.29 in7.4 mm 0.39 in9.9 mm
08:20 PM 44.8°F7.1°C 43.8°F6.6°C 96% 2.3 mph ESE3.7 kmh ESE 2.3 mph3.7 kmh 29.62 in1003.0 mb - 0.32 in8.1 mm 0.43 in10.9 mm
08:30 PM 44.8°F7.1°C 43.8°F6.6°C 96% 2.3 mph ESE3.7 kmh ESE 2.3 mph3.7 kmh 29.60 in1002.4 mb - 0.31 in7.9 mm 0.47 in11.9 mm
08:40 PM 44.8°F7.1°C 43.7°F6.5°C 96% 2.3 mph E3.7 kmh E 2.3 mph3.7 kmh 29.59 in1002.0 mb - 0.29 in7.4 mm 0.48 in12.2 mm
08:50 PM 44.8°F7.1°C 43.7°F6.5°C 96% 2.3 mph NE3.7 kmh NE 2.3 mph3.7 kmh 29.61 in1002.7 mb - 0.26 in6.6 mm 0.53 in13.5 mm
09:00 PM 44.7°F7.1°C 43.7°F6.5°C 96% 1.2 mph NE1.9 kmh NE 5.8 mph9.3 kmh 29.60 in1002.4 mb - 0.23 in5.8 mm 0.57 in14.5 mm
09:10 PM 44.7°F7.1°C 43.7°F6.5°C 96% 1.2 mph SSE1.9 kmh SSE 2.3 mph3.7 kmh 29.59 in1002.0 mb - 0.18 in4.6 mm 0.57 in14.5 mm
09:20 PM 44.7°F7.1°C 43.7°F6.5°C 96% 2.3 mph SE3.7 kmh SE 2.3 mph3.7 kmh 29.58 in1001.7 mb - 0.15 in3.8 mm 0.57 in14.5 mm
09:30 PM 44.7°F7.1°C 43.7°F6.5°C 96% 2.3 mph ENE3.7 kmh ENE 2.3 mph3.7 kmh 29.56 in1001.0 mb - 0.10 in2.5 mm 0.57 in14.5 mm
09:40 PM 44.7°F7.1°C 43.7°F6.5°C 96% 1.2 mph N1.9 kmh N 2.3 mph3.7 kmh 29.55 in1000.7 mb - 0.09 in2.3 mm 0.57 in14.5 mm
09:50 PM 44.7°F7.1°C 43.7°F6.5°C 96% 2.3 mph S3.7 kmh S 2.3 mph3.7 kmh 29.55 in1000.7 mb - 0.04 in1.0 mm 0.57 in14.5 mm
10:00 PM 44.8°F7.1°C 43.7°F6.5°C 96% 3.5 mph ENE5.6 kmh ENE 6.9 mph11.1 kmh 29.54 in1000.3 mb - 0.01 in0.3 mm 0.58 in14.7 mm
10:10 PM 44.8°F7.1°C 43.7°F6.5°C 96% 3.5 mph NW5.6 kmh NW 5.8 mph9.3 kmh 29.53 in1000.0 mb - 0.01 in0.3 mm 0.58 in14.7 mm
10:20 PM 44.8°F7.1°C 43.7°F6.5°C 96% 2.3 mph E3.7 kmh E 5.8 mph9.3 kmh 29.51 in999.3 mb - 0.01 in0.3 mm 0.58 in14.7 mm
10:30 PM 44.8°F7.1°C 43.8°F6.6°C 96% 1.2 mph ESE1.9 kmh ESE 2.3 mph3.7 kmh 29.50 in999.0 mb - 0.01 in0.3 mm 0.58 in14.7 mm
10:40 PM 44.8°F7.1°C 43.8°F6.6°C 96% 2.3 mph NE3.7 kmh NE 2.3 mph3.7 kmh 29.49 in998.6 mb - 0.01 in0.3 mm 0.58 in14.7 mm
10:50 PM 45.0°F7.2°C 43.9°F6.6°C 96% 3.5 mph E5.6 kmh E 3.5 mph5.6 kmh 29.48 in998.3 mb - 0.02 in0.5 mm 0.59 in15.0 mm
11:00 PM 45.0°F7.2°C 43.9°F6.6°C 96% 3.5 mph SSE5.6 kmh SSE 2.3 mph3.7 kmh 29.46 in997.6 mb - 0.01 in0.3 mm 0.59 in15.0 mm
11:10 PM 45.2°F7.3°C 44.4°F6.9°C 97% 2.3 mph N3.7 kmh N 3.5 mph5.6 kmh 29.45 in997.3 mb - 0.01 in0.3 mm 0.59 in15.0 mm
11:20 PM 45.3°F7.4°C 44.5°F6.9°C 97% 1.2 mph ESE1.9 kmh ESE -- 29.44 in997.0 mb - 0.02 in0.5 mm 0.60 in15.2 mm
11:30 PM 45.4°F7.4°C 44.6°F7.0°C 97% 2.3 mph NE3.7 kmh NE 8.1 mph13.0 kmh 29.43 in996.6 mb - 0.06 in1.5 mm 0.64 in16.3 mm
11:40 PM 45.5°F7.5°C 44.7°F7.1°C 97% 2.3 mph N3.7 kmh N 2.3 mph3.7 kmh 29.43 in996.6 mb - 0.06 in1.5 mm 0.64 in16.3 mm
11:50 PM 45.6°F7.6°C 44.8°F7.1°C 97% 2.3 mph SE3.7 kmh SE 2.3 mph3.7 kmh 29.41 in995.9 mb - 0.05 in1.3 mm 0.64 in16.3 mm